sensor_id;sensor_type;location;lat;lon;timestamp;pressure;altitude;pressure_sealevel;temperature;humidity
7888;BME280;3989;48.810;9.208;2024-02-21T05:06:32;99529.78;;;4.64;100.00
7888;BME280;3989;48.810;9.208;2024-02-21T05:09:01;99550.78;;;4.66;100.00
7888;BME280;3989;48.810;9.208;2024-02-21T05:11:28;99520.31;;;4.40;100.00
7888;BME280;3989;48.810;9.208;2024-02-21T05:13:55;99528.00;;;4.32;100.00
7888;BME280;3989;48.810;9.208;2024-02-21T05:16:22;99471.69;;;3.98;100.00
7888;BME280;3989;48.810;9.208;2024-02-21T05:18:49;99532.47;;;4.42;100.00
7888;BME280;3989;48.810;9.208;2024-02-21T05:21:29;99468.81;;;4.01;100.00
7888;BME280;3989;48.810;9.208;2024-02-21T05:23:57;99485.13;;;4.17;100.00
7888;BME280;3989;48.810;9.208;2024-02-21T05:26:26;99473.50;;;4.19;100.00
7888;BME280;3989;48.810;9.208;2024-02-21T05:28:53;99504.94;;;4.45;100.00
7888;BME280;3989;48.810;9.208;2024-02-21T05:31:20;99451.50;;;4.30;100.00
7888;BME280;3989;48.810;9.208;2024-02-21T05:33:47;99413.69;;;4.18;100.00
7888;BME280;3989;48.810;9.208;2024-02-21T05:36:14;99453.31;;;4.72;100.00
7888;BME280;3989;48.810;9.208;2024-02-21T05:38:52;99448.91;;;5.14;100.00
7888;BME280;3989;48.810;9.208;2024-02-21T05:41:21;99492.97;;;5.36;100.00
7888;BME280;3989;48.810;9.208;2024-02-21T05:43:50;99452.41;;;5.15;100.00
7888;BME280;3989;48.810;9.208;2024-02-21T05:46:19;99472.41;;;5.28;100.00
7888;BME280;3989;48.810;9.208;2024-02-21T05:48:46;99471.91;;;5.35;100.00
7888;BME280;3989;48.810;9.208;2024-02-21T05:51:12;99472.47;;;5.38;100.00
7888;BME280;3989;48.810;9.208;2024-02-21T05:53:40;99453.13;;;5.17;100.00
7888;BME280;3989;48.810;9.208;2024-02-21T05:56:10;99451.28;;;5.17;100.00
7888;BME280;3989;48.810;9.208;2024-02-21T05:58:39;99466.47;;;5.15;100.00
7888;BME280;3989;48.810;9.208;2024-02-21T06:01:07;99427.69;;;4.84;100.00
7888;BME280;3989;48.810;9.208;2024-02-21T06:03:34;99427.84;;;4.71;100.00
7888;BME280;3989;48.810;9.208;2024-02-21T06:06:02;99418.84;;;4.63;100.00
7888;BME280;3989;48.810;9.208;2024-02-21T06:08:30;99463.88;;;4.72;100.00
7888;BME280;3989;48.810;9.208;2024-02-21T06:10:57;99431.19;;;4.42;100.00
7888;BME280;3989;48.810;9.208;2024-02-21T06:13:26;99431.94;;;4.33;100.00
7888;BME280;3989;48.810;9.208;2024-02-21T06:15:55;99445.75;;;4.36;100.00
7888;BME280;3989;48.810;9.208;2024-02-21T06:18:21;99462.16;;;4.51;100.00
7888;BME280;3989;48.810;9.208;2024-02-21T06:20:48;99460.56;;;4.59;100.00
7888;BME280;3989;48.810;9.208;2024-02-21T06:23:16;99448.03;;;4.30;100.00
7888;BME280;3989;48.810;9.208;2024-02-21T06:25:43;99459.22;;;4.22;100.00
7888;BME280;3989;48.810;9.208;2024-02-21T06:28:10;99448.63;;;4.11;100.00
7888;BME280;3989;48.810;9.208;2024-02-21T06:30:37;99463.88;;;4.18;100.00
7888;BME280;3989;48.810;9.208;2024-02-21T06:33:06;99467.72;;;4.26;100.00
7888;BME280;3989;48.810;9.208;2024-02-21T06:35:33;99453.06;;;4.21;100.00
7888;BME280;3989;48.810;9.208;2024-02-21T06:38:00;99473.56;;;4.40;100.00
7888;BME280;3989;48.810;9.208;2024-02-21T06:40:28;99448.16;;;4.28;100.00
7888;BME280;3989;48.810;9.208;2024-02-21T06:43:03;99461.56;;;4.47;100.00
7888;BME280;3989;48.810;9.208;2024-02-21T06:45:30;99468.31;;;4.72;100.00
7888;BME280;3989;48.810;9.208;2024-02-21T06:47:57;99422.53;;;4.40;100.00
7888;BME280;3989;48.810;9.208;2024-02-21T06:50:25;99455.25;;;4.59;100.00
7888;BME280;3989;48.810;9.208;2024-02-21T06:52:52;99466.28;;;4.75;100.00
7888;BME280;3989;48.810;9.208;2024-02-21T06:55:19;99418.66;;;4.55;100.00
7888;BME280;3989;48.810;9.208;2024-02-21T06:57:46;99461.81;;;4.87;100.00
7888;BME280;3989;48.810;9.208;2024-02-21T07:00:15;99449.97;;;4.91;100.00
7888;BME280;3989;48.810;9.208;2024-02-21T07:02:42;99468.53;;;5.12;100.00
7888;BME280;3989;48.810;9.208;2024-02-21T07:05:09;99451.38;;;5.27;100.00
7888;BME280;3989;48.810;9.208;2024-02-21T07:07:37;99446.44;;;5.43;100.00
7888;BME280;3989;48.810;9.208;2024-02-21T07:10:06;99387.78;;;5.17;100.00
7888;BME280;3989;48.810;9.208;2024-02-21T07:12:33;99443.84;;;5.73;100.00
7888;BME280;3989;48.810;9.208;2024-02-21T07:15:01;99438.00;;;5.79;100.00
7888;BME280;3989;48.810;9.208;2024-02-21T07:17:27;99359.97;;;5.53;100.00
7888;BME280;3989;48.810;9.208;2024-02-21T07:19:54;99443.44;;;6.08;100.00
7888;BME280;3989;48.810;9.208;2024-02-21T07:22:22;99432.19;;;6.16;100.00
7888;BME280;3989;48.810;9.208;2024-02-21T07:24:50;99426.91;;;6.25;100.00
7888;BME280;3989;48.810;9.208;2024-02-21T07:27:17;99411.59;;;6.39;100.00
7888;BME280;3989;48.810;9.208;2024-02-21T07:29:44;99409.94;;;6.47;100.00
7888;BME280;3989;48.810;9.208;2024-02-21T07:32:14;99405.19;;;6.60;100.00
7888;BME280;3989;48.810;9.208;2024-02-21T07:34:41;99430.47;;;7.03;100.00
7888;BME280;3989;48.810;9.208;2024-02-21T07:37:08;99414.00;;;7.09;100.00
7888;BME280;3989;48.810;9.208;2024-02-21T07:39:35;99376.28;;;6.96;100.00
7888;BME280;3989;48.810;9.208;2024-02-21T07:42:04;99391.06;;;7.08;100.00
7888;BME280;3989;48.810;9.208;2024-02-21T07:44:31;99425.66;;;7.45;100.00
7888;BME280;3989;48.810;9.208;2024-02-21T07:47:00;99400.78;;;7.46;100.00
7888;BME280;3989;48.810;9.208;2024-02-21T07:49:27;99364.19;;;7.39;100.00
7888;BME280;3989;48.810;9.208;2024-02-21T07:51:53;99403.78;;;7.70;100.00
7888;BME280;3989;48.810;9.208;2024-02-21T07:54:20;99381.13;;;7.75;100.00
7888;BME280;3989;48.810;9.208;2024-02-21T07:56:47;99362.69;;;7.64;100.00
7888;BME280;3989;48.810;9.208;2024-02-21T07:59:15;99395.13;;;7.95;100.00
7888;BME280;3989;48.810;9.208;2024-02-21T08:01:43;99371.50;;;7.92;100.00
7888;BME280;3989;48.810;9.208;2024-02-21T08:04:11;99391.56;;;8.14;100.00
7888;BME280;3989;48.810;9.208;2024-02-21T08:06:38;99360.94;;;8.10;100.00
7888;BME280;3989;48.810;9.208;2024-02-21T08:09:04;99384.47;;;8.32;100.00
7888;BME280;3989;48.810;9.208;2024-02-21T08:11:31;99339.81;;;8.08;100.00
7888;BME280;3989;48.810;9.208;2024-02-21T08:13:58;99382.13;;;8.47;100.00
7888;BME280;3989;48.810;9.208;2024-02-21T08:16:27;99395.31;;;8.66;100.00
7888;BME280;3989;48.810;9.208;2024-02-21T08:18:54;99391.44;;;8.78;100.00
7888;BME280;3989;48.810;9.208;2024-02-21T08:21:21;99385.19;;;8.87;100.00
7888;BME280;3989;48.810;9.208;2024-02-21T08:23:48;99379.78;;;8.96;100.00
7888;BME280;3989;48.810;9.208;2024-02-21T08:26:17;99377.91;;;9.15;100.00
7888;BME280;3989;48.810;9.208;2024-02-21T08:28:44;99382.44;;;9.14;100.00
7888;BME280;3989;48.810;9.208;2024-02-21T08:31:10;99343.03;;;9.00;100.00
7888;BME280;3989;48.810;9.208;2024-02-21T08:33:38;99325.88;;;8.94;100.00
7888;BME280;3989;48.810;9.208;2024-02-21T08:36:06;99365.81;;;9.20;100.00
7888;BME280;3989;48.810;9.208;2024-02-21T08:38:33;99372.44;;;9.42;100.00
7888;BME280;3989;48.810;9.208;2024-02-21T08:41:00;99333.16;;;9.44;100.00
7888;BME280;3989;48.810;9.208;2024-02-21T08:43:28;99339.72;;;9.58;100.00
7888;BME280;3989;48.810;9.208;2024-02-21T08:45:56;99349.56;;;9.57;100.00
7888;BME280;3989;48.810;9.208;2024-02-21T08:48:23;99344.84;;;9.51;100.00
7888;BME280;3989;48.810;9.208;2024-02-21T08:50:52;99325.53;;;9.49;100.00
7888;BME280;3989;48.810;9.208;2024-02-21T08:53:20;99350.78;;;9.71;100.00
7888;BME280;3989;48.810;9.208;2024-02-21T08:55:47;99360.34;;;9.81;100.00
7888;BME280;3989;48.810;9.208;2024-02-21T08:58:13;99338.19;;;9.89;100.00
7888;BME280;3989;48.810;9.208;2024-02-21T09:00:41;99339.53;;;9.85;100.00
7888;BME280;3989;48.810;9.208;2024-02-21T09:03:07;99330.31;;;9.79;100.00
7888;BME280;3989;48.810;9.208;2024-02-21T09:05:37;99314.31;;;9.71;100.00
7888;BME280;3989;48.810;9.208;2024-02-21T09:08:06;99326.03;;;9.86;100.00
7888;BME280;3989;48.810;9.208;2024-02-21T09:10:32;99323.56;;;9.93;100.00
7888;BME280;3989;48.810;9.208;2024-02-21T09:12:59;99319.91;;;9.94;100.00
7888;BME280;3989;48.810;9.208;2024-02-21T09:15:29;99324.91;;;10.05;100.00
7888;BME280;3989;48.810;9.208;2024-02-21T09:17:56;99316.28;;;10.11;100.00
7888;BME280;3989;48.810;9.208;2024-02-21T09:20:23;99321.78;;;10.01;100.00
7888;BME280;3989;48.810;9.208;2024-02-21T09:22:50;99313.00;;;10.17;100.00
7888;BME280;3989;48.810;9.208;2024-02-21T09:25:20;99312.69;;;10.28;100.00
7888;BME280;3989;48.810;9.208;2024-02-21T09:27:47;99315.84;;;10.32;98.84
7888;BME280;3989;48.810;9.208;2024-02-21T09:30:14;99288.16;;;10.25;97.77
7888;BME280;3989;48.810;9.208;2024-02-21T09:32:41;99299.66;;;10.25;98.76
7888;BME280;3989;48.810;9.208;2024-02-21T09:35:07;99303.03;;;10.35;97.80
7888;BME280;3989;48.810;9.208;2024-02-21T09:37:35;99295.34;;;10.40;97.38
7888;BME280;3989;48.810;9.208;2024-02-21T09:40:04;99304.53;;;10.38;94.03
7888;BME280;3989;48.810;9.208;2024-02-21T09:42:36;99289.38;;;10.46;95.23
7888;BME280;3989;48.810;9.208;2024-02-21T09:45:08;99285.22;;;10.68;89.00
7888;BME280;3989;48.810;9.208;2024-02-21T09:47:43;99280.50;;;10.86;88.87
7888;BME280;3989;48.810;9.208;2024-02-21T09:50:15;99301.03;;;11.10;83.92
7888;BME280;3989;48.810;9.208;2024-02-21T09:52:44;99231.44;;;10.79;81.49
7888;BME280;3989;48.810;9.208;2024-02-21T09:55:13;99278.13;;;11.16;79.48
7888;BME280;3989;48.810;9.208;2024-02-21T09:57:44;99289.13;;;11.29;79.71
7888;BME280;3989;48.810;9.208;2024-02-21T10:00:13;99291.44;;;11.40;75.77
7888;BME280;3989;48.810;9.208;2024-02-21T10:02:47;99260.41;;;11.23;74.61
7888;BME280;3989;48.810;9.208;2024-02-21T10:05:15;99288.38;;;11.51;72.71
7888;BME280;3989;48.810;9.208;2024-02-21T10:07:43;99263.44;;;11.67;69.67
7888;BME280;3989;48.810;9.208;2024-02-21T10:10:10;99279.28;;;11.76;71.32
7888;BME280;3989;48.810;9.208;2024-02-21T10:12:49;99258.72;;;11.77;69.86
7888;BME280;3989;48.810;9.208;2024-02-21T10:15:20;99258.97;;;11.98;66.85
7888;BME280;3989;48.810;9.208;2024-02-21T10:17:48;99261.94;;;12.03;63.13
7888;BME280;3989;48.810;9.208;2024-02-21T10:20:15;99249.53;;;12.10;62.72
7888;BME280;3989;48.810;9.208;2024-02-21T10:22:42;99253.41;;;12.30;61.49
7888;BME280;3989;48.810;9.208;2024-02-21T10:25:09;99248.19;;;12.37;61.12
7888;BME280;3989;48.810;9.208;2024-02-21T10:27:36;99243.47;;;12.39;60.53
7888;BME280;3989;48.810;9.208;2024-02-21T10:30:08;99218.72;;;12.37;57.21
7888;BME280;3989;48.810;9.208;2024-02-21T10:32:49;99230.16;;;12.53;57.82
7888;BME280;3989;48.810;9.208;2024-02-21T10:35:25;99237.88;;;12.48;57.82
7888;BME280;3989;48.810;9.208;2024-02-21T10:37:52;99233.09;;;12.58;57.56
7888;BME280;3989;48.810;9.208;2024-02-21T10:40:23;99221.97;;;12.70;56.57
7888;BME280;3989;48.810;9.208;2024-02-21T10:42:56;99206.09;;;12.83;56.06
7888;BME280;3989;48.810;9.208;2024-02-21T10:45:30;99207.50;;;12.93;55.21
7888;BME280;3989;48.810;9.208;2024-02-21T10:48:08;99221.09;;;13.06;55.30
7888;BME280;3989;48.810;9.208;2024-02-21T10:50:47;99212.78;;;13.01;54.30
7888;BME280;3989;48.810;9.208;2024-02-21T10:53:20;99189.84;;;12.99;53.21
7888;BME280;3989;48.810;9.208;2024-02-21T10:55:58;99197.16;;;13.05;53.58
7888;BME280;3989;48.810;9.208;2024-02-21T10:58:29;99153.81;;;12.87;53.52
7888;BME280;3989;48.810;9.208;2024-02-21T11:00:59;99183.41;;;13.23;53.25
7888;BME280;3989;48.810;9.208;2024-02-21T11:03:26;99170.22;;;13.21;52.26
7888;BME280;3989;48.810;9.208;2024-02-21T14:57:46;98614.84;;;13.73;41.01
7888;BME280;3989;48.810;9.208;2024-02-21T15:00:15;98742.28;;;14.30;40.39
7888;BME280;3989;48.810;9.208;2024-02-21T15:02:42;98629.00;;;13.54;39.98
7888;BME280;3989;48.810;9.208;2024-02-21T15:05:09;98631.84;;;13.39;39.90
7888;BME280;3989;48.810;9.208;2024-02-21T15:07:38;98664.69;;;13.61;39.98
7888;BME280;3989;48.810;9.208;2024-02-21T15:10:06;98634.66;;;13.31;40.36
7888;BME280;3989;48.810;9.208;2024-02-21T15:12:33;98556.75;;;12.85;40.46
7888;BME280;3989;48.810;9.208;2024-02-21T15:15:03;98740.91;;;13.86;40.50
7888;BME280;3989;48.810;9.208;2024-02-21T15:17:31;98703.50;;;13.65;40.07
7888;BME280;3989;48.810;9.208;2024-02-21T15:19:59;98620.41;;;13.18;39.91
7888;BME280;3989;48.810;9.208;2024-02-21T15:22:29;98608.22;;;13.15;39.69
7888;BME280;3989;48.810;9.208;2024-02-21T15:24:56;98621.84;;;13.20;38.92
7888;BME280;3989;48.810;9.208;2024-02-21T15:27:24;98683.06;;;13.64;39.19
7888;BME280;3989;48.810;9.208;2024-02-21T15:29:52;98651.06;;;13.49;39.79
7888;BME280;3989;48.810;9.208;2024-02-21T15:32:20;98673.19;;;13.71;40.69
7888;BME280;3989;48.810;9.208;2024-02-21T15:34:49;98671.94;;;13.67;41.34
7888;BME280;3989;48.810;9.208;2024-02-21T15:37:16;98558.25;;;13.01;41.68
7888;BME280;3989;48.810;9.208;2024-02-21T15:39:43;98647.56;;;13.55;42.19
7888;BME280;3989;48.810;9.208;2024-02-21T15:42:11;98539.88;;;12.91;42.45
7888;BME280;3989;48.810;9.208;2024-02-21T15:44:38;98651.03;;;13.43;42.84
7888;BME280;3989;48.810;9.208;2024-02-21T15:47:08;98535.84;;;12.68;43.22
7888;BME280;3989;48.810;9.208;2024-02-21T15:49:37;98538.53;;;12.68;43.95
7888;BME280;3989;48.810;9.208;2024-02-21T15:52:05;98469.22;;;12.10;44.94
7888;BME280;3989;48.810;9.208;2024-02-21T15:54:32;98484.72;;;12.22;45.30
7888;BME280;3989;48.810;9.208;2024-02-21T15:57:01;98521.50;;;12.47;46.18
7888;BME280;3989;48.810;9.208;2024-02-21T15:59:31;98622.75;;;12.99;47.08
7888;BME280;3989;48.810;9.208;2024-02-21T16:01:59;98562.09;;;12.51;47.41
7888;BME280;3989;48.810;9.208;2024-02-21T16:04:26;98596.81;;;12.66;47.88
7888;BME280;3989;48.810;9.208;2024-02-21T16:06:55;98525.44;;;12.17;48.31
7888;BME280;3989;48.810;9.208;2024-02-21T16:09:23;98563.78;;;12.24;48.54
7888;BME280;3989;48.810;9.208;2024-02-21T16:11:50;98474.09;;;11.73;49.10
7888;BME280;3989;48.810;9.208;2024-02-21T16:14:17;98464.50;;;11.64;49.30
7888;BME280;3989;48.810;9.208;2024-02-21T16:16:44;98622.25;;;12.55;49.78
7888;BME280;3989;48.810;9.208;2024-02-21T16:19:14;98442.78;;;11.45;49.85
7888;BME280;3989;48.810;9.208;2024-02-21T16:21:42;98504.81;;;11.83;50.22
7888;BME280;3989;48.810;9.208;2024-02-21T16:24:12;98487.47;;;11.73;50.87
7888;BME280;3989;48.810;9.208;2024-02-21T16:26:39;98450.63;;;11.47;51.66
7888;BME280;3989;48.810;9.208;2024-02-21T16:29:06;98452.53;;;11.32;52.32
7888;BME280;3989;48.810;9.208;2024-02-21T16:31:33;98580.41;;;12.20;53.14
7888;BME280;3989;48.810;9.208;2024-02-21T16:34:02;98577.25;;;12.09;54.45
7888;BME280;3989;48.810;9.208;2024-02-21T16:36:30;98457.84;;;11.32;55.69
7888;BME280;3989;48.810;9.208;2024-02-21T16:38:59;98517.53;;;11.60;57.71
7888;BME280;3989;48.810;9.208;2024-02-21T16:41:31;98368.59;;;10.77;59.15
7888;BME280;3989;48.810;9.208;2024-02-21T16:43:59;98489.72;;;11.54;61.64
7888;BME280;3989;48.810;9.208;2024-02-21T16:46:27;98536.50;;;11.86;64.18
7888;BME280;3989;48.810;9.208;2024-02-21T16:48:55;98486.28;;;11.60;65.99
7888;BME280;3989;48.810;9.208;2024-02-21T16:53:58;98392.94;;;10.89;69.22
7888;BME280;3989;48.810;9.208;2024-02-21T23:19:31;98028.81;;;11.24;60.65
7888;BME280;3989;48.810;9.208;2024-02-21T23:21:59;98032.13;;;11.33;59.21
7888;BME280;3989;48.810;9.208;2024-02-21T23:24:29;98038.91;;;11.42;61.19
7888;BME280;3989;48.810;9.208;2024-02-21T23:26:55;98024.28;;;11.31;64.02
7888;BME280;3989;48.810;9.208;2024-02-21T23:29:22;98020.81;;;11.24;63.56
7888;BME280;3989;48.810;9.208;2024-02-21T23:31:49;97962.53;;;10.87;62.60
7888;BME280;3989;48.810;9.208;2024-02-21T23:34:16;97998.84;;;11.48;57.27
7888;BME280;3989;48.810;9.208;2024-02-21T23:36:45;98006.31;;;11.92;52.91
7888;BME280;3989;48.810;9.208;2024-02-21T23:39:11;98010.22;;;12.16;52.28
7888;BME280;3989;48.810;9.208;2024-02-21T23:41:41;98007.75;;;12.08;52.97
7888;BME280;3989;48.810;9.208;2024-02-21T23:44:11;98007.13;;;11.93;53.93
7888;BME280;3989;48.810;9.208;2024-02-21T23:46:38;97980.63;;;11.78;52.76
7888;BME280;3989;48.810;9.208;2024-02-21T23:49:06;97974.63;;;12.02;51.55
7888;BME280;3989;48.810;9.208;2024-02-21T23:51:33;97978.91;;;12.30;51.01
7888;BME280;3989;48.810;9.208;2024-02-21T23:54:04;97962.00;;;12.42;50.92
7888;BME280;3989;48.810;9.208;2024-02-21T23:56:31;97930.91;;;12.48;50.65
7888;BME280;3989;48.810;9.208;2024-02-21T23:58:58;97988.03;;;12.73;50.41
